Weather reports worldwide

Advertisment
Naimakka, Sweden (2055): temperature & dewpoint: 04.07.2020 12:00:00 - 10.07.2020 12:00:00 (CEST)Naimakka, Sweden (2055): wind speed & gusts: 04.07.2020 12:00:00 - 10.07.2020 12:00:00 (CEST)Naimakka, Sweden (2055): wind direction: 04.07.2020 12:00:00 - 10.07.2020 12:00:00 (CEST)Naimakka, Sweden (2055): visibility: 04.07.2020 12:00:00 - 10.07.2020 12:00:00 (CEST)Naimakka, Sweden (2055): precipitation: 04.07.2020 12:00:00 - 10.07.2020 12:00:00 (CEST)
Date & Time tt [°C] td [°C] ff [km/h] ff [kn] fx [km/h] fx [kn] dd vv [km] rr [mm]
10.07.2020 12:00:00 11,1 1,1 18 10 29 16 NNE 50 0,0
10.07.2020 11:00:00 11,1 1,9 19 11 34 18 NNE 50 0,0
10.07.2020 10:00:00 11,5 1,4 21 11 34 19 NNE 48 0,0
10.07.2020 09:00:00 11,0 1,0 16 9 29 15 N 50 0,0
10.07.2020 08:00:00 10,8 1,3 16 8 26 14 NE 50 0,0
10.07.2020 07:00:00 10,0 4,6 9 5 16 8 WNW 50 0,0
10.07.2020 06:00:00 9,8 4,6 9 5 13 7 WNW 47 0,0
10.07.2020 05:00:00 8,5 5,2 7 4 10 5 W 50 0,0
10.07.2020 04:00:00 7,8 5,4 3 2 6 3 W 50 0,0
10.07.2020 03:00:00 8,0 5,3 0 0 9 5 N 50 0,0
10.07.2020 02:00:00 9,1 3,7 6 4 19 10 WNW 50 0,0
10.07.2020 01:00:00 10,0 3,5 9 5 20 11 N 50 0,0
10.07.2020 00:00:00 10,8 4,9 4 2 22 12 N 50 0,0
09.07.2020 23:00:00 11,9 5,5 7 4 21 12 NNE 50 0,0
09.07.2020 22:00:00 13,0 4,4 11 6 32 18 NE 50 0,0
09.07.2020 21:00:00 13,9 3,4 10 5 27 15 NE 50 0,0
09.07.2020 20:00:00 14,4 3,2 13 7 23 13 NE 50 0,0
09.07.2020 19:00:00 14,7 4,4 12 7 25 13 E 50 0,0
09.07.2020 18:00:00 15,3 4,1 15 8 32 17 ENE 50 0,0
09.07.2020 17:00:00 16,1 5,1 13 7 24 13 ENE 50 0,0
09.07.2020 16:00:00 15,4 5,0 13 7 23 12 NE 50 0,0
09.07.2020 15:00:00 15,4 4,7 14 8 24 13 ENE 50 0,0
09.07.2020 14:00:00 15,5 3,6 10 5 22 12 NE 50 0,0
09.07.2020 13:00:00 16,3 4,7 5 3 21 11 E 42 0,0
09.07.2020 12:00:00 15,5 2,0 10 5 21 12 E 47 0,0
09.07.2020 11:00:00 15,1 3,3 10 6 22 12 E 42 0,0
09.07.2020 10:00:00 14,3 2,5 8 4 23 12 NE 39 0,0
09.07.2020 09:00:00 13,6 6,0 7 4 14 8 WNW 36 0,0
09.07.2020 08:00:00 11,5 6,0 4 2 11 6 W 45 0,0
09.07.2020 07:00:00 10,0 5,8 7 4 14 8 W 50 0,0
09.07.2020 06:00:00 8,7 5,6 10 5 16 9 W 50 0,0
09.07.2020 05:00:00 7,9 5,5 9 5 20 11 W 50 0,0
09.07.2020 04:00:00 7,2 5,7 8 4 14 7 WNW 50 0,0
09.07.2020 03:00:00 5,7 5,3 10 6 14 8 W 50 0,0
09.07.2020 02:00:00 4,2 4,1 5 3 8 5 W 50 0,0
09.07.2020 01:00:00 3,8 3,5 3 2 7 4 W 16 0,0
09.07.2020 00:00:00 5,9 5,0 3 1 6 3 WNW 50 0,0
08.07.2020 23:00:00 7,3 5,1 0 0 7 4 N 50 0,0
08.07.2020 22:00:00 10,4 6,0 6 3 19 11 ENE 50 0,0
08.07.2020 21:00:00 11,6 5,0 10 6 19 10 NE 47 0,0
08.07.2020 20:00:00 12,6 5,0 9 5 22 12 NE 50 0,0
08.07.2020 19:00:00 13,5 4,9 11 6 19 11 ENE 50 0,0
08.07.2020 18:00:00 13,8 5,4 9 5 21 11 ENE 40 0,0
08.07.2020 17:00:00 13,9 4,2 6 4 18 10 ENE 45 0,0
08.07.2020 16:00:00 13,5 4,9 11 6 21 12 NE 50 0,0
08.07.2020 15:00:00 13,9 4,7 7 4 19 10 E 48 0,0
08.07.2020 14:00:00 13,2 4,6 11 6 22 12 ENE 50 0,0
08.07.2020 13:00:00 13,3 4,4 12 6 25 13 NE 47 0,0
08.07.2020 12:00:00 13,3 2,8 11 6 19 10 ENE 41 0,0
08.07.2020 11:00:00 13,2 3,0 6 3 20 11 NE 42 0,0
08.07.2020 10:00:00 11,9 3,4 7 4 16 8 N 50 0,0
08.07.2020 09:00:00 11,2 3,5 8 4 19 10 N 50 0,0
08.07.2020 08:00:00 11,7 4,7 10 5 18 10 N 50 0,0
08.07.2020 07:00:00 10,6 5,8 4 2 13 7 WSW 41 0,0
08.07.2020 06:00:00 8,4 4,8 6 3 9 5 N 50 0,0
08.07.2020 05:00:00 7,6 5,1 8 4 11 6 W 50 0,0
08.07.2020 04:00:00 5,6 4,4 6 3 10 6 WNW 50 0,0
08.07.2020 03:00:00 5,0 3,8 7 4 11 6 W 50 0,0
08.07.2020 02:00:00 6,1 4,4 5 3 14 8 W 50 0,0
08.07.2020 01:00:00 7,9 4,8 6 3 14 7 NW 50 0,0
08.07.2020 00:00:00 7,2 5,3 5 3 8 4 W 50 0,0
07.07.2020 23:00:00 6,0 4,5 2 1 13 7 W 50 0,0
07.07.2020 22:00:00 9,7 3,9 9 5 19 10 WNW 49 0,0
07.07.2020 21:00:00 11,5 3,5 10 5 20 11 NNW 50 0,0
07.07.2020 20:00:00 12,0 3,0 9 5 19 10 NNW 47 0,0
07.07.2020 19:00:00 13,1 3,2 9 5 18 10 W 50 0,0
07.07.2020 18:00:00 12,2 4,4 10 5 16 9 WNW 50 0,0
07.07.2020 17:00:00 12,1 4,6 10 5 23 13 W 50 0,0
07.07.2020 16:00:00 12,4 5,1 13 7 21 11 WNW 50 0,0
07.07.2020 15:00:00 12,0 6,1 7 4 22 12 NW 47 0,0
07.07.2020 14:00:00 11,6 5,7 6 3 16 9 NW 50 0,0
07.07.2020 13:00:00 10,4 6,0 9 5 21 11 WNW 36 0,0
07.07.2020 12:00:00 9,8 6,0 12 6 25 14 WNW 50 0,0
07.07.2020 11:00:00 9,3 6,4 12 6 22 12 W 39 0,0
07.07.2020 10:00:00 8,9 6,5 12 7 19 10 W 36 0,1
07.07.2020 09:00:00 8,7 6,7 9 5 13 7 WNW 48 0,1
07.07.2020 08:00:00 8,4 6,5 6 4 13 7 WNW 19 0,2
07.07.2020 07:00:00 8,2 6,0 10 5 16 9 W 25 0,0
07.07.2020 06:00:00 8,1 5,9 8 4 15 8 W 50 0,0
07.07.2020 05:00:00 7,8 5,8 6 4 14 8 W 50 0,0
07.07.2020 04:00:00 7,9 5,7 9 5 18 10 W 36 0,0
07.07.2020 03:00:00 7,9 5,7 7 4 16 9 W 50 0,0
07.07.2020 02:00:00 8,1 5,7 9 5 20 11 W 50 0,0
07.07.2020 01:00:00 8,1 5,7 13 7 26 14 WNW 50 0,0
07.07.2020 00:00:00 8,3 5,9 14 8 27 15 WNW 50 0,0
06.07.2020 23:00:00 8,7 5,4 19 10 28 15 WNW 41 0,0
06.07.2020 22:00:00 9,4 5,0 15 8 32 18 NW 50 0,0
06.07.2020 21:00:00 10,5 4,6 19 10 38 21 WNW 50 0,0
06.07.2020 20:00:00 11,5 4,2 17 9 34 19 NW 50 0,0
06.07.2020 19:00:00 13,6 4,2 16 9 37 20 NW 49 0,0
06.07.2020 18:00:00 13,7 4,0 21 12 40 22 NW 48 0,0
06.07.2020 17:00:00 14,5 3,6 20 11 31 17 NW 47 0,0
06.07.2020 16:00:00 15,1 2,9 15 8 36 19 NW 42 0,0
06.07.2020 15:00:00 16,1 2,8 14 7 29 16 NW 46 0,0
06.07.2020 14:00:00 14,8 1,7 16 9 29 16 N 41 0,0
06.07.2020 13:00:00 15,3 2,1 9 5 26 14 NW 38 0,0
06.07.2020 12:00:00 14,6 1,1 13 7 23 13 WNW 41 0,0
06.07.2020 11:00:00 13,8 3,6 8 4 21 11 W 44 0,0
06.07.2020 10:00:00 12,8 3,7 9 5 19 10 NW 48 0,0
06.07.2020 09:00:00 11,8 3,0 6 4 16 9 W 49 0,0
06.07.2020 08:00:00 10,4 3,4 9 5 18 10 W 48 0,0
06.07.2020 07:00:00 9,1 3,3 7 4 15 8 WNW 50 0,0
06.07.2020 06:00:00 7,7 2,6 8 4 13 7 WNW 50 0,0
06.07.2020 05:00:00 6,5 2,9 4 2 10 5 NNW 50 0,0
06.07.2020 04:00:00 5,3 2,5 5 3 11 6 W 50 0,0
06.07.2020 03:00:00 4,4 2,3 9 5 14 8 W 50 0,0
06.07.2020 02:00:00 6,3 2,9 7 4 13 7 W 50 0,0
06.07.2020 01:00:00 6,3 3,1 4 2 10 5 WNW 50 0,0
06.07.2020 00:00:00 6,2 3,4 5 3 10 5 W 50 0,0
05.07.2020 23:00:00 6,8 3,8 3 2 9 5 N 50 0,0
05.07.2020 22:00:00 8,1 3,4 3 2 11 6 E 50 0,0
05.07.2020 21:00:00 8,7 3,1 6 3 15 8 NE 50 0,0
05.07.2020 20:00:00 8,9 3,3 7 4 13 7 NNE 50 0,0
05.07.2020 19:00:00 9,0 2,6 8 4 14 8 N 50 0,0
05.07.2020 18:00:00 9,1 2,4 10 6 20 11 N 50 0,0
05.07.2020 17:00:00 9,1 2,4 11 6 24 13 NNE 50 0,0
05.07.2020 16:00:00 9,1 2,2 13 7 25 13 N 50 0,0
05.07.2020 15:00:00 9,1 2,2 14 8 27 14 N 50 0,0
05.07.2020 14:00:00 9,4 1,8 17 9 29 15 N 50 0,0
05.07.2020 13:00:00 9,2 1,8 15 8 33 18 NW 50 0,0
05.07.2020 12:00:00 9,4 1,6 15 8 28 15 NNW 50 0,0
05.07.2020 11:00:00 9,3 1,2 15 8 24 13 N 50 0,0
05.07.2020 10:00:00 9,1 1,3 15 8 32 17 NW 50 0,0
05.07.2020 09:00:00 8,9 1,6 17 9 36 19 NNW 50 0,0
05.07.2020 08:00:00 9,0 3,0 18 10 29 15 WNW 45 0,0
05.07.2020 07:00:00 7,9 3,0 16 9 27 15 WNW 50 0,0
05.07.2020 06:00:00 7,0 2,7 12 6 23 12 WNW 50 0,0
05.07.2020 05:00:00 6,3 3,0 10 5 14 8 WNW 50 0,0
05.07.2020 04:00:00 5,7 3,5 0 0 8 4 N 50 0,0
05.07.2020 03:00:00 5,2 3,5 4 2 9 5 W 50 0,0
05.07.2020 02:00:00 4,5 3,8 3 2 6 3 SW 50 0,0
05.07.2020 01:00:00 3,1 2,5 0 0 3 2 N 50 0,0
05.07.2020 00:00:00 4,5 2,8 0 0 9 5 N 50 0,0
04.07.2020 23:00:00 6,9 2,2 4 2 10 6 NE 50 0,0
04.07.2020 22:00:00 6,4 2,3 6 4 16 9 NE 50 0,0
04.07.2020 21:00:00 8,5 3,1 5 3 14 7 ENE 50 0,0
04.07.2020 20:00:00 9,0 3,2 8 4 23 12 WNW 50 0,0
04.07.2020 19:00:00 8,1 3,7 14 8 22 12 WNW 50 0,0
04.07.2020 18:00:00 8,4 4,4 14 7 25 13 W 50 0,0
04.07.2020 17:00:00 9,3 4,1 13 7 26 14 W 50 0,0
04.07.2020 16:00:00 8,7 4,3 12 7 23 12 W 50 0,0
04.07.2020 15:00:00 9,1 3,9 11 6 23 12 W 50 0,0
04.07.2020 14:00:00 8,7 4,3 15 8 28 15 W 50 0,0
04.07.2020 13:00:00 8,3 3,9 13 7 22 12 NW 45 0,0
04.07.2020 12:00:00 7,6 5,2 14 8 27 15 WNW 26 0,0

tt = temperature
td = dewpoint
ff = wind speed
fx = gusts
dd = wind direction
vv = visibility
rr = precipitation

Next stations